sensor_id;sensor_type;location;lat;lon;timestamp;P1;durP1;ratioP1;P2;durP2;ratioP2
10162;SDS011;5123;52.556;13.384;2022-12-18T00:00:30;28.90;;;15.70;;
10162;SDS011;5123;52.556;13.384;2022-12-18T00:03:02;32.67;;;15.40;;
10162;SDS011;5123;52.556;13.384;2022-12-18T00:05:36;26.33;;;14.37;;
10162;SDS011;5123;52.556;13.384;2022-12-18T00:08:10;29.23;;;13.37;;
10162;SDS011;5123;52.556;13.384;2022-12-18T00:10:43;27.70;;;13.37;;
10162;SDS011;5123;52.556;13.384;2022-12-18T00:13:16;32.43;;;14.73;;
10162;SDS011;5123;52.556;13.384;2022-12-18T00:15:50;28.07;;;12.83;;
10162;SDS011;5123;52.556;13.384;2022-12-18T00:18:27;28.67;;;13.37;;
10162;SDS011;5123;52.556;13.384;2022-12-18T00:21:09;30.87;;;13.73;;
10162;SDS011;5123;52.556;13.384;2022-12-18T00:23:46;31.63;;;15.50;;
10162;SDS011;5123;52.556;13.384;2022-12-18T00:26:20;30.90;;;14.83;;
10162;SDS011;5123;52.556;13.384;2022-12-18T00:28:54;33.07;;;14.67;;
10162;SDS011;5123;52.556;13.384;2022-12-18T00:31:28;33.33;;;16.50;;
10162;SDS011;5123;52.556;13.384;2022-12-18T00:34:01;37.00;;;16.23;;
10162;SDS011;5123;52.556;13.384;2022-12-18T00:36:34;33.27;;;15.23;;
10162;SDS011;5123;52.556;13.384;2022-12-18T00:39:09;37.97;;;17.03;;
10162;SDS011;5123;52.556;13.384;2022-12-18T00:41:43;33.87;;;16.90;;
10162;SDS011;5123;52.556;13.384;2022-12-18T00:44:33;29.10;;;15.10;;
10162;SDS011;5123;52.556;13.384;2022-12-18T00:47:07;31.77;;;15.90;;
10162;SDS011;5123;52.556;13.384;2022-12-18T00:49:40;33.93;;;15.70;;
10162;SDS011;5123;52.556;13.384;2022-12-18T00:52:13;31.37;;;15.37;;
10162;SDS011;5123;52.556;13.384;2022-12-18T00:54:47;32.07;;;15.93;;
10162;SDS011;5123;52.556;13.384;2022-12-18T00:57:20;37.27;;;16.50;;
10162;SDS011;5123;52.556;13.384;2022-12-18T00:59:53;33.23;;;15.40;;
10162;SDS011;5123;52.556;13.384;2022-12-18T01:02:26;35.97;;;16.83;;
10162;SDS011;5123;52.556;13.384;2022-12-18T01:04:59;34.10;;;16.40;;
10162;SDS011;5123;52.556;13.384;2022-12-18T01:07:32;33.43;;;17.63;;
10162;SDS011;5123;52.556;13.384;2022-12-18T01:10:09;33.20;;;15.87;;
10162;SDS011;5123;52.556;13.384;2022-12-18T01:12:43;32.50;;;16.17;;
10162;SDS011;5123;52.556;13.384;2022-12-18T01:15:17;36.70;;;16.90;;
10162;SDS011;5123;52.556;13.384;2022-12-18T01:17:51;33.53;;;17.90;;
10162;SDS011;5123;52.556;13.384;2022-12-18T01:20:25;34.33;;;16.53;;
10162;SDS011;5123;52.556;13.384;2022-12-18T01:22:58;32.70;;;16.77;;
10162;SDS011;5123;52.556;13.384;2022-12-18T01:25:32;30.23;;;16.07;;
10162;SDS011;5123;52.556;13.384;2022-12-18T01:28:05;30.63;;;15.23;;
10162;SDS011;5123;52.556;13.384;2022-12-18T01:30:37;32.80;;;15.27;;
10162;SDS011;5123;52.556;13.384;2022-12-18T01:33:12;33.63;;;15.93;;
10162;SDS011;5123;52.556;13.384;2022-12-18T01:35:45;30.10;;;15.70;;
10162;SDS011;5123;52.556;13.384;2022-12-18T01:38:19;30.13;;;14.97;;
10162;SDS011;5123;52.556;13.384;2022-12-18T01:40:57;30.30;;;15.97;;
10162;SDS011;5123;52.556;13.384;2022-12-18T01:46:32;31.23;;;15.10;;
10162;SDS011;5123;52.556;13.384;2022-12-18T01:49:05;33.20;;;16.43;;
10162;SDS011;5123;52.556;13.384;2022-12-18T01:51:38;31.80;;;16.77;;
10162;SDS011;5123;52.556;13.384;2022-12-18T01:54:11;32.03;;;14.87;;
10162;SDS011;5123;52.556;13.384;2022-12-18T01:56:45;35.10;;;16.23;;
10162;SDS011;5123;52.556;13.384;2022-12-18T01:59:18;34.07;;;15.57;;
10162;SDS011;5123;52.556;13.384;2022-12-18T02:01:51;33.00;;;15.87;;
10162;SDS011;5123;52.556;13.384;2022-12-18T02:04:25;33.57;;;16.47;;
10162;SDS011;5123;52.556;13.384;2022-12-18T02:06:59;34.70;;;15.50;;
10162;SDS011;5123;52.556;13.384;2022-12-18T02:09:36;34.63;;;16.03;;
10162;SDS011;5123;52.556;13.384;2022-12-18T02:12:13;34.57;;;15.57;;
10162;SDS011;5123;52.556;13.384;2022-12-18T02:14:49;35.80;;;16.07;;
10162;SDS011;5123;52.556;13.384;2022-12-18T02:17:28;29.27;;;15.33;;
10162;SDS011;5123;52.556;13.384;2022-12-18T02:20:06;32.73;;;15.67;;
10162;SDS011;5123;52.556;13.384;2022-12-18T02:22:44;33.37;;;16.63;;
10162;SDS011;5123;52.556;13.384;2022-12-18T02:25:26;33.83;;;15.73;;
10162;SDS011;5123;52.556;13.384;2022-12-18T02:28:03;33.40;;;16.80;;
10162;SDS011;5123;52.556;13.384;2022-12-18T02:30:41;30.40;;;14.70;;
10162;SDS011;5123;52.556;13.384;2022-12-18T02:33:15;31.60;;;16.07;;
10162;SDS011;5123;52.556;13.384;2022-12-18T02:35:48;36.67;;;15.83;;
10162;SDS011;5123;52.556;13.384;2022-12-18T02:38:21;30.80;;;15.23;;
10162;SDS011;5123;52.556;13.384;2022-12-18T02:40:55;33.63;;;16.60;;
10162;SDS011;5123;52.556;13.384;2022-12-18T02:43:31;34.23;;;16.77;;
10162;SDS011;5123;52.556;13.384;2022-12-18T02:46:21;31.70;;;15.47;;
10162;SDS011;5123;52.556;13.384;2022-12-18T02:48:58;34.07;;;17.10;;
10162;SDS011;5123;52.556;13.384;2022-12-18T02:51:37;34.00;;;16.50;;
10162;SDS011;5123;52.556;13.384;2022-12-18T02:54:15;39.30;;;17.27;;
10162;SDS011;5123;52.556;13.384;2022-12-18T02:56:53;34.83;;;16.47;;
10162;SDS011;5123;52.556;13.384;2022-12-18T02:59:33;41.40;;;17.07;;
10162;SDS011;5123;52.556;13.384;2022-12-18T03:02:10;47.80;;;19.10;;
10162;SDS011;5123;52.556;13.384;2022-12-18T03:04:50;36.73;;;17.10;;
10162;SDS011;5123;52.556;13.384;2022-12-18T03:07:28;39.27;;;18.07;;
10162;SDS011;5123;52.556;13.384;2022-12-18T03:10:06;45.87;;;19.47;;
10162;SDS011;5123;52.556;13.384;2022-12-18T03:12:40;43.83;;;19.67;;
10162;SDS011;5123;52.556;13.384;2022-12-18T03:15:16;43.63;;;19.63;;
10162;SDS011;5123;52.556;13.384;2022-12-18T03:17:52;45.87;;;18.37;;
10162;SDS011;5123;52.556;13.384;2022-12-18T03:20:27;43.97;;;18.30;;
10162;SDS011;5123;52.556;13.384;2022-12-18T03:23:06;40.53;;;19.00;;
10162;SDS011;5123;52.556;13.384;2022-12-18T03:25:41;49.23;;;20.77;;
10162;SDS011;5123;52.556;13.384;2022-12-18T03:28:15;45.60;;;20.47;;
10162;SDS011;5123;52.556;13.384;2022-12-18T03:30:52;54.87;;;20.43;;
10162;SDS011;5123;52.556;13.384;2022-12-18T03:33:25;47.97;;;19.93;;
10162;SDS011;5123;52.556;13.384;2022-12-18T03:36:00;43.87;;;20.03;;
10162;SDS011;5123;52.556;13.384;2022-12-18T03:38:33;54.67;;;21.47;;
10162;SDS011;5123;52.556;13.384;2022-12-18T03:41:07;47.47;;;20.83;;
10162;SDS011;5123;52.556;13.384;2022-12-18T03:43:48;50.00;;;22.27;;
10162;SDS011;5123;52.556;13.384;2022-12-18T03:46:25;51.07;;;21.93;;
10162;SDS011;5123;52.556;13.384;2022-12-18T03:49:00;50.57;;;22.10;;
10162;SDS011;5123;52.556;13.384;2022-12-18T03:51:36;57.67;;;22.43;;
10162;SDS011;5123;52.556;13.384;2022-12-18T03:54:11;53.53;;;23.03;;
10162;SDS011;5123;52.556;13.384;2022-12-18T03:56:45;55.23;;;22.27;;
10162;SDS011;5123;52.556;13.384;2022-12-18T03:59:19;53.27;;;21.57;;
10162;SDS011;5123;52.556;13.384;2022-12-18T04:01:54;55.10;;;23.87;;
10162;SDS011;5123;52.556;13.384;2022-12-18T04:04:29;58.27;;;25.27;;
10162;SDS011;5123;52.556;13.384;2022-12-18T04:07:08;52.43;;;23.97;;
10162;SDS011;5123;52.556;13.384;2022-12-18T04:09:41;61.13;;;25.87;;
10162;SDS011;5123;52.556;13.384;2022-12-18T04:12:19;57.87;;;23.90;;
10162;SDS011;5123;52.556;13.384;2022-12-18T04:14:51;45.93;;;21.73;;
10162;SDS011;5123;52.556;13.384;2022-12-18T04:17:33;55.73;;;23.67;;
10162;SDS011;5123;52.556;13.384;2022-12-18T04:20:06;54.13;;;23.17;;
10162;SDS011;5123;52.556;13.384;2022-12-18T04:22:39;41.83;;;20.73;;
10162;SDS011;5123;52.556;13.384;2022-12-18T04:25:12;50.20;;;21.60;;
10162;SDS011;5123;52.556;13.384;2022-12-18T04:27:47;51.30;;;20.60;;
10162;SDS011;5123;52.556;13.384;2022-12-18T04:30:19;53.47;;;20.97;;
10162;SDS011;5123;52.556;13.384;2022-12-18T04:32:53;52.00;;;22.40;;
10162;SDS011;5123;52.556;13.384;2022-12-18T04:35:29;45.53;;;20.27;;
10162;SDS011;5123;52.556;13.384;2022-12-18T04:38:01;40.27;;;19.07;;
10162;SDS011;5123;52.556;13.384;2022-12-18T04:40:35;48.17;;;19.47;;
10162;SDS011;5123;52.556;13.384;2022-12-18T04:43:08;40.33;;;18.33;;
10162;SDS011;5123;52.556;13.384;2022-12-18T04:45:41;40.30;;;18.77;;
10162;SDS011;5123;52.556;13.384;2022-12-18T04:48:15;40.20;;;18.57;;
10162;SDS011;5123;52.556;13.384;2022-12-18T04:50:48;37.67;;;17.77;;
10162;SDS011;5123;52.556;13.384;2022-12-18T04:53:21;42.13;;;17.73;;
10162;SDS011;5123;52.556;13.384;2022-12-18T04:56:01;37.60;;;17.87;;
10162;SDS011;5123;52.556;13.384;2022-12-18T04:58:34;42.37;;;18.73;;
10162;SDS011;5123;52.556;13.384;2022-12-18T05:01:07;40.67;;;17.37;;
10162;SDS011;5123;52.556;13.384;2022-12-18T05:03:42;32.90;;;16.57;;
10162;SDS011;5123;52.556;13.384;2022-12-18T05:06:16;36.63;;;17.10;;
10162;SDS011;5123;52.556;13.384;2022-12-18T05:08:48;37.00;;;17.63;;
10162;SDS011;5123;52.556;13.384;2022-12-18T05:11:21;40.80;;;16.93;;
10162;SDS011;5123;52.556;13.384;2022-12-18T05:13:56;36.20;;;16.63;;
10162;SDS011;5123;52.556;13.384;2022-12-18T05:16:28;33.87;;;16.60;;
10162;SDS011;5123;52.556;13.384;2022-12-18T05:19:05;41.60;;;18.20;;
10162;SDS011;5123;52.556;13.384;2022-12-18T05:21:40;40.50;;;17.70;;
10162;SDS011;5123;52.556;13.384;2022-12-18T05:24:13;37.07;;;16.97;;
10162;SDS011;5123;52.556;13.384;2022-12-18T05:26:46;39.63;;;17.50;;
10162;SDS011;5123;52.556;13.384;2022-12-18T05:29:19;35.27;;;16.73;;
10162;SDS011;5123;52.556;13.384;2022-12-18T05:31:52;40.00;;;16.63;;
10162;SDS011;5123;52.556;13.384;2022-12-18T05:34:26;36.47;;;16.60;;
10162;SDS011;5123;52.556;13.384;2022-12-18T05:36:59;38.50;;;16.33;;
10162;SDS011;5123;52.556;13.384;2022-12-18T05:39:32;36.00;;;16.67;;
10162;SDS011;5123;52.556;13.384;2022-12-18T05:42:05;34.03;;;16.40;;
10162;SDS011;5123;52.556;13.384;2022-12-18T05:44:37;38.17;;;17.23;;
10162;SDS011;5123;52.556;13.384;2022-12-18T05:47:10;29.97;;;14.90;;
10162;SDS011;5123;52.556;13.384;2022-12-18T05:49:44;32.60;;;16.67;;
10162;SDS011;5123;52.556;13.384;2022-12-18T05:52:17;35.93;;;15.87;;
10162;SDS011;5123;52.556;13.384;2022-12-18T05:54:50;33.10;;;16.47;;
10162;SDS011;5123;52.556;13.384;2022-12-18T05:57:26;35.30;;;15.67;;
10162;SDS011;5123;52.556;13.384;2022-12-18T05:59:59;34.97;;;16.43;;
10162;SDS011;5123;52.556;13.384;2022-12-18T06:02:34;37.93;;;17.10;;
10162;SDS011;5123;52.556;13.384;2022-12-18T06:05:08;36.40;;;15.63;;
10162;SDS011;5123;52.556;13.384;2022-12-18T06:07:43;36.20;;;16.80;;
10162;SDS011;5123;52.556;13.384;2022-12-18T06:10:18;40.57;;;16.87;;
10162;SDS011;5123;52.556;13.384;2022-12-18T06:12:51;37.70;;;16.73;;
10162;SDS011;5123;52.556;13.384;2022-12-18T06:15:24;41.80;;;17.87;;
10162;SDS011;5123;52.556;13.384;2022-12-18T06:17:57;33.47;;;14.90;;
10162;SDS011;5123;52.556;13.384;2022-12-18T06:20:31;38.97;;;17.83;;
10162;SDS011;5123;52.556;13.384;2022-12-18T06:23:04;36.20;;;16.73;;
10162;SDS011;5123;52.556;13.384;2022-12-18T06:25:37;34.20;;;15.87;;
10162;SDS011;5123;52.556;13.384;2022-12-18T06:28:11;37.00;;;16.37;;
10162;SDS011;5123;52.556;13.384;2022-12-18T06:30:43;36.80;;;16.77;;
10162;SDS011;5123;52.556;13.384;2022-12-18T06:33:19;41.77;;;17.87;;
10162;SDS011;5123;52.556;13.384;2022-12-18T06:35:53;32.50;;;15.53;;
10162;SDS011;5123;52.556;13.384;2022-12-18T06:38:35;36.30;;;17.27;;
10162;SDS011;5123;52.556;13.384;2022-12-18T06:41:12;40.27;;;17.40;;
10162;SDS011;5123;52.556;13.384;2022-12-18T06:43:45;40.00;;;16.50;;
10162;SDS011;5123;52.556;13.384;2022-12-18T06:46:18;40.53;;;18.37;;
10162;SDS011;5123;52.556;13.384;2022-12-18T06:48:53;40.43;;;16.93;;
10162;SDS011;5123;52.556;13.384;2022-12-18T06:51:30;47.33;;;18.50;;
10162;SDS011;5123;52.556;13.384;2022-12-18T06:54:03;43.03;;;18.80;;
10162;SDS011;5123;52.556;13.384;2022-12-18T06:56:36;39.30;;;18.33;;
10162;SDS011;5123;52.556;13.384;2022-12-18T06:59:10;42.23;;;17.30;;
10162;SDS011;5123;52.556;13.384;2022-12-18T07:01:42;40.37;;;18.43;;
10162;SDS011;5123;52.556;13.384;2022-12-18T07:04:16;38.33;;;17.73;;
10162;SDS011;5123;52.556;13.384;2022-12-18T07:06:50;44.83;;;18.40;;
10162;SDS011;5123;52.556;13.384;2022-12-18T07:09:23;36.47;;;16.67;;
10162;SDS011;5123;52.556;13.384;2022-12-18T07:11:57;40.17;;;18.20;;
10162;SDS011;5123;52.556;13.384;2022-12-18T07:14:29;45.83;;;19.47;;
10162;SDS011;5123;52.556;13.384;2022-12-18T07:17:05;38.47;;;17.93;;
10162;SDS011;5123;52.556;13.384;2022-12-18T07:19:37;37.60;;;17.47;;
10162;SDS011;5123;52.556;13.384;2022-12-18T07:22:13;44.20;;;18.47;;
10162;SDS011;5123;52.556;13.384;2022-12-18T07:24:48;44.50;;;19.60;;
10162;SDS011;5123;52.556;13.384;2022-12-18T07:27:21;40.20;;;17.57;;
10162;SDS011;5123;52.556;13.384;2022-12-18T07:29:55;42.07;;;19.23;;
10162;SDS011;5123;52.556;13.384;2022-12-18T07:32:28;34.07;;;16.37;;
10162;SDS011;5123;52.556;13.384;2022-12-18T07:35:02;45.97;;;19.20;;
10162;SDS011;5123;52.556;13.384;2022-12-18T07:37:52;39.00;;;19.23;;
10162;SDS011;5123;52.556;13.384;2022-12-18T07:40:25;44.07;;;19.50;;
10162;SDS011;5123;52.556;13.384;2022-12-18T07:42:58;40.97;;;18.93;;
10162;SDS011;5123;52.556;13.384;2022-12-18T07:45:31;41.33;;;18.67;;
10162;SDS011;5123;52.556;13.384;2022-12-18T07:48:04;46.50;;;19.97;;
10162;SDS011;5123;52.556;13.384;2022-12-18T07:50:37;45.20;;;18.23;;
10162;SDS011;5123;52.556;13.384;2022-12-18T07:53:11;41.17;;;17.97;;
10162;SDS011;5123;52.556;13.384;2022-12-18T07:55:46;37.33;;;18.37;;
10162;SDS011;5123;52.556;13.384;2022-12-18T07:58:39;35.40;;;17.37;;
10162;SDS011;5123;52.556;13.384;2022-12-18T08:01:12;39.13;;;17.83;;
10162;SDS011;5123;52.556;13.384;2022-12-18T08:03:45;38.70;;;18.33;;
10162;SDS011;5123;52.556;13.384;2022-12-18T08:06:18;37.07;;;17.93;;
10162;SDS011;5123;52.556;13.384;2022-12-18T08:08:56;44.27;;;19.50;;
10162;SDS011;5123;52.556;13.384;2022-12-18T08:11:29;40.37;;;18.50;;
10162;SDS011;5123;52.556;13.384;2022-12-18T08:14:02;41.47;;;18.57;;
10162;SDS011;5123;52.556;13.384;2022-12-18T08:16:34;43.63;;;20.47;;
10162;SDS011;5123;52.556;13.384;2022-12-18T08:19:09;43.53;;;19.67;;
10162;SDS011;5123;52.556;13.384;2022-12-18T08:21:42;42.07;;;17.23;;
10162;SDS011;5123;52.556;13.384;2022-12-18T08:24:16;36.90;;;17.67;;
10162;SDS011;5123;52.556;13.384;2022-12-18T08:26:49;37.20;;;17.60;;
10162;SDS011;5123;52.556;13.384;2022-12-18T08:29:43;33.30;;;17.87;;
10162;SDS011;5123;52.556;13.384;2022-12-18T08:32:16;38.10;;;18.17;;
10162;SDS011;5123;52.556;13.384;2022-12-18T08:34:49;35.37;;;17.90;;
10162;SDS011;5123;52.556;13.384;2022-12-18T08:37:22;40.80;;;18.37;;
10162;SDS011;5123;52.556;13.384;2022-12-18T08:39:56;42.00;;;19.00;;
10162;SDS011;5123;52.556;13.384;2022-12-18T08:42:29;40.50;;;17.70;;
10162;SDS011;5123;52.556;13.384;2022-12-18T08:45:19;35.20;;;17.20;;
10162;SDS011;5123;52.556;13.384;2022-12-18T08:47:52;32.73;;;16.93;;
10162;SDS011;5123;52.556;13.384;2022-12-18T08:50:25;35.57;;;18.03;;
10162;SDS011;5123;52.556;13.384;2022-12-18T08:53:01;32.77;;;15.40;;
10162;SDS011;5123;52.556;13.384;2022-12-18T08:55:35;32.83;;;16.63;;
10162;SDS011;5123;52.556;13.384;2022-12-18T08:58:08;36.30;;;16.43;;
10162;SDS011;5123;52.556;13.384;2022-12-18T09:00:41;36.67;;;17.43;;
10162;SDS011;5123;52.556;13.384;2022-12-18T09:03:14;35.40;;;16.47;;
10162;SDS011;5123;52.556;13.384;2022-12-18T09:05:47;39.73;;;18.07;;
10162;SDS011;5123;52.556;13.384;2022-12-18T09:08:20;31.30;;;16.97;;
10162;SDS011;5123;52.556;13.384;2022-12-18T09:10:56;32.00;;;17.10;;
10162;SDS011;5123;52.556;13.384;2022-12-18T09:13:31;37.47;;;17.47;;
10162;SDS011;5123;52.556;13.384;2022-12-18T09:16:04;32.70;;;16.63;;
10162;SDS011;5123;52.556;13.384;2022-12-18T09:18:37;32.87;;;16.10;;
10162;SDS011;5123;52.556;13.384;2022-12-18T09:21:11;38.17;;;17.87;;
10162;SDS011;5123;52.556;13.384;2022-12-18T09:23:44;27.73;;;15.43;;
10162;SDS011;5123;52.556;13.384;2022-12-18T09:26:22;31.83;;;15.93;;
10162;SDS011;5123;52.556;13.384;2022-12-18T09:28:55;33.40;;;16.60;;
10162;SDS011;5123;52.556;13.384;2022-12-18T09:31:28;33.77;;;16.67;;
10162;SDS011;5123;52.556;13.384;2022-12-18T09:34:01;31.53;;;16.10;;
10162;SDS011;5123;52.556;13.384;2022-12-18T09:36:39;35.07;;;16.90;;
10162;SDS011;5123;52.556;13.384;2022-12-18T09:39:12;32.27;;;16.17;;
10162;SDS011;5123;52.556;13.384;2022-12-18T09:41:46;26.40;;;15.30;;
10162;SDS011;5123;52.556;13.384;2022-12-18T09:44:23;31.80;;;16.20;;
10162;SDS011;5123;52.556;13.384;2022-12-18T09:46:59;34.67;;;17.27;;
10162;SDS011;5123;52.556;13.384;2022-12-18T09:49:34;33.27;;;17.20;;
10162;SDS011;5123;52.556;13.384;2022-12-18T09:52:09;33.07;;;15.80;;
10162;SDS011;5123;52.556;13.384;2022-12-18T09:54:45;30.87;;;17.10;;
10162;SDS011;5123;52.556;13.384;2022-12-18T09:57:21;33.50;;;17.37;;
10162;SDS011;5123;52.556;13.384;2022-12-18T09:59:56;30.83;;;15.73;;
10162;SDS011;5123;52.556;13.384;2022-12-18T10:02:30;35.90;;;17.37;;
10162;SDS011;5123;52.556;13.384;2022-12-18T10:05:07;40.10;;;17.83;;
10162;SDS011;5123;52.556;13.384;2022-12-18T10:07:44;36.50;;;18.13;;
10162;SDS011;5123;52.556;13.384;2022-12-18T10:10:27;28.93;;;15.20;;
10162;SDS011;5123;52.556;13.384;2022-12-18T10:13:06;33.57;;;16.90;;
10162;SDS011;5123;52.556;13.384;2022-12-18T10:15:45;35.10;;;16.33;;
10162;SDS011;5123;52.556;13.384;2022-12-18T10:18:25;29.17;;;14.93;;
10162;SDS011;5123;52.556;13.384;2022-12-18T10:21:02;36.87;;;16.67;;
10162;SDS011;5123;52.556;13.384;2022-12-18T10:23:38;35.80;;;16.23;;
10162;SDS011;5123;52.556;13.384;2022-12-18T10:26:18;34.00;;;17.63;;
10162;SDS011;5123;52.556;13.384;2022-12-18T10:28:55;36.93;;;18.47;;
10162;SDS011;5123;52.556;13.384;2022-12-18T10:31:36;37.40;;;17.20;;
10162;SDS011;5123;52.556;13.384;2022-12-18T10:34:09;35.60;;;16.53;;
10162;SDS011;5123;52.556;13.384;2022-12-18T10:36:42;34.67;;;16.60;;
10162;SDS011;5123;52.556;13.384;2022-12-18T10:39:16;34.67;;;17.07;;
10162;SDS011;5123;52.556;13.384;2022-12-18T10:41:49;33.40;;;16.20;;
10162;SDS011;5123;52.556;13.384;2022-12-18T10:44:26;34.57;;;16.37;;
10162;SDS011;5123;52.556;13.384;2022-12-18T10:47:14;35.97;;;17.63;;
10162;SDS011;5123;52.556;13.384;2022-12-18T10:49:52;38.80;;;18.53;;
10162;SDS011;5123;52.556;13.384;2022-12-18T10:52:26;31.90;;;17.20;;
10162;SDS011;5123;52.556;13.384;2022-12-18T10:55:01;31.03;;;17.00;;
10162;SDS011;5123;52.556;13.384;2022-12-18T10:57:35;32.37;;;16.50;;
10162;SDS011;5123;52.556;13.384;2022-12-18T11:00:26;35.00;;;16.67;;
10162;SDS011;5123;52.556;13.384;2022-12-18T11:02:59;36.47;;;17.07;;
10162;SDS011;5123;52.556;13.384;2022-12-18T11:05:33;36.90;;;18.23;;
10162;SDS011;5123;52.556;13.384;2022-12-18T11:08:11;38.80;;;17.93;;
10162;SDS011;5123;52.556;13.384;2022-12-18T11:10:52;37.47;;;18.20;;
10162;SDS011;5123;52.556;13.384;2022-12-18T11:13:26;38.13;;;17.53;;
10162;SDS011;5123;52.556;13.384;2022-12-18T11:16:01;36.50;;;17.60;;
10162;SDS011;5123;52.556;13.384;2022-12-18T11:18:34;39.57;;;18.87;;
10162;SDS011;5123;52.556;13.384;2022-12-18T11:21:08;40.47;;;19.10;;
10162;SDS011;5123;52.556;13.384;2022-12-18T11:23:45;37.80;;;17.80;;
10162;SDS011;5123;52.556;13.384;2022-12-18T11:26:19;43.17;;;17.67;;
10162;SDS011;5123;52.556;13.384;2022-12-18T11:29:07;35.63;;;18.33;;
10162;SDS011;5123;52.556;13.384;2022-12-18T11:31:42;36.47;;;17.13;;
10162;SDS011;5123;52.556;13.384;2022-12-18T11:34:19;40.97;;;19.13;;
10162;SDS011;5123;52.556;13.384;2022-12-18T11:37:01;35.07;;;17.40;;
10162;SDS011;5123;52.556;13.384;2022-12-18T11:39:36;32.37;;;17.07;;
10162;SDS011;5123;52.556;13.384;2022-12-18T11:42:11;36.73;;;17.30;;
10162;SDS011;5123;52.556;13.384;2022-12-18T11:44:46;31.03;;;17.53;;
10162;SDS011;5123;52.556;13.384;2022-12-18T11:47:25;38.03;;;18.00;;
10162;SDS011;5123;52.556;13.384;2022-12-18T11:50:01;33.53;;;16.90;;
10162;SDS011;5123;52.556;13.384;2022-12-18T11:52:35;33.17;;;16.60;;
10162;SDS011;5123;52.556;13.384;2022-12-18T11:55:11;33.30;;;17.00;;
10162;SDS011;5123;52.556;13.384;2022-12-18T11:57:46;30.30;;;15.70;;
10162;SDS011;5123;52.556;13.384;2022-12-18T12:00:22;35.20;;;17.90;;
10162;SDS011;5123;52.556;13.384;2022-12-18T12:03:05;30.07;;;15.03;;
10162;SDS011;5123;52.556;13.384;2022-12-18T12:05:49;28.30;;;15.10;;
10162;SDS011;5123;52.556;13.384;2022-12-18T12:08:27;33.97;;;16.47;;
10162;SDS011;5123;52.556;13.384;2022-12-18T12:11:09;37.47;;;17.30;;
10162;SDS011;5123;52.556;13.384;2022-12-18T12:13:48;31.37;;;15.27;;
10162;SDS011;5123;52.556;13.384;2022-12-18T12:16:24;30.73;;;15.83;;
10162;SDS011;5123;52.556;13.384;2022-12-18T12:19:04;30.53;;;15.90;;
10162;SDS011;5123;52.556;13.384;2022-12-18T12:21:40;31.60;;;16.13;;
10162;SDS011;5123;52.556;13.384;2022-12-18T12:24:20;32.07;;;15.50;;
10162;SDS011;5123;52.556;13.384;2022-12-18T12:26:58;32.27;;;17.13;;
10162;SDS011;5123;52.556;13.384;2022-12-18T12:29:46;31.97;;;16.00;;
10162;SDS011;5123;52.556;13.384;2022-12-18T12:32:26;36.30;;;17.77;;
10162;SDS011;5123;52.556;13.384;2022-12-18T12:35:05;27.73;;;15.57;;
10162;SDS011;5123;52.556;13.384;2022-12-18T12:37:42;30.70;;;15.67;;
10162;SDS011;5123;52.556;13.384;2022-12-18T12:40:20;29.63;;;16.30;;
10162;SDS011;5123;52.556;13.384;2022-12-18T12:43:27;34.13;;;16.67;;
10162;SDS011;5123;52.556;13.384;2022-12-18T12:46:03;35.40;;;16.53;;
10162;SDS011;5123;52.556;13.384;2022-12-18T12:48:40;28.17;;;15.77;;
10162;SDS011;5123;52.556;13.384;2022-12-18T12:51:17;30.73;;;15.93;;
10162;SDS011;5123;52.556;13.384;2022-12-18T12:53:54;31.87;;;16.73;;
10162;SDS011;5123;52.556;13.384;2022-12-18T12:56:30;35.00;;;17.57;;
10162;SDS011;5123;52.556;13.384;2022-12-18T12:59:11;35.97;;;16.67;;
10162;SDS011;5123;52.556;13.384;2022-12-18T13:01:49;28.40;;;15.97;;
10162;SDS011;5123;52.556;13.384;2022-12-18T13:04:26;31.77;;;17.23;;
10162;SDS011;5123;52.556;13.384;2022-12-18T13:07:05;30.70;;;17.10;;
10162;SDS011;5123;52.556;13.384;2022-12-18T13:12:27;30.20;;;16.47;;
10162;SDS011;5123;52.556;13.384;2022-12-18T13:15:20;34.23;;;16.43;;
10162;SDS011;5123;52.556;13.384;2022-12-18T13:18:03;37.27;;;16.57;;
10162;SDS011;5123;52.556;13.384;2022-12-18T13:20:38;29.10;;;16.03;;
10162;SDS011;5123;52.556;13.384;2022-12-18T13:23:27;35.50;;;16.70;;
10162;SDS011;5123;52.556;13.384;2022-12-18T13:28:57;30.23;;;16.33;;
10162;SDS011;5123;52.556;13.384;2022-12-18T13:34:40;36.00;;;18.43;;
10162;SDS011;5123;52.556;13.384;2022-12-18T13:42:54;29.33;;;16.97;;
10162;SDS011;5123;52.556;13.384;2022-12-18T13:45:57;31.70;;;16.40;;
10162;SDS011;5123;52.556;13.384;2022-12-18T13:48:35;32.90;;;16.93;;
10162;SDS011;5123;52.556;13.384;2022-12-18T13:51:11;29.10;;;16.27;;
10162;SDS011;5123;52.556;13.384;2022-12-18T13:53:53;32.10;;;16.90;;
10162;SDS011;5123;52.556;13.384;2022-12-18T13:56:27;35.63;;;17.80;;
10162;SDS011;5123;52.556;13.384;2022-12-18T13:59:18;26.57;;;16.47;;
10162;SDS011;5123;52.556;13.384;2022-12-18T14:01:55;35.17;;;17.40;;
10162;SDS011;5123;52.556;13.384;2022-12-18T14:04:30;27.57;;;16.33;;
10162;SDS011;5123;52.556;13.384;2022-12-18T14:07:03;28.80;;;17.33;;
10162;SDS011;5123;52.556;13.384;2022-12-18T14:09:39;28.37;;;15.80;;
10162;SDS011;5123;52.556;13.384;2022-12-18T14:12:14;31.73;;;16.90;;
10162;SDS011;5123;52.556;13.384;2022-12-18T14:15:09;25.67;;;17.00;;
10162;SDS011;5123;52.556;13.384;2022-12-18T14:17:47;28.93;;;16.60;;
10162;SDS011;5123;52.556;13.384;2022-12-18T14:20:21;32.10;;;18.07;;
10162;SDS011;5123;52.556;13.384;2022-12-18T14:22:58;29.37;;;18.17;;
10162;SDS011;5123;52.556;13.384;2022-12-18T14:25:32;32.53;;;17.87;;
10162;SDS011;5123;52.556;13.384;2022-12-18T14:28:14;31.17;;;18.73;;
10162;SDS011;5123;52.556;13.384;2022-12-18T14:30:49;34.07;;;20.13;;
10162;SDS011;5123;52.556;13.384;2022-12-18T14:33:23;35.07;;;19.63;;
10162;SDS011;5123;52.556;13.384;2022-12-18T14:35:57;32.87;;;18.80;;
10162;SDS011;5123;52.556;13.384;2022-12-18T14:38:30;31.03;;;19.47;;
10162;SDS011;5123;52.556;13.384;2022-12-18T14:41:03;31.67;;;17.80;;
10162;SDS011;5123;52.556;13.384;2022-12-18T14:43:37;31.57;;;18.37;;
10162;SDS011;5123;52.556;13.384;2022-12-18T14:49:01;28.90;;;16.37;;
10162;SDS011;5123;52.556;13.384;2022-12-18T14:51:34;29.47;;;17.23;;
10162;SDS011;5123;52.556;13.384;2022-12-18T14:54:14;29.67;;;18.43;;
10162;SDS011;5123;52.556;13.384;2022-12-18T14:56:48;28.40;;;17.03;;
10162;SDS011;5123;52.556;13.384;2022-12-18T14:59:21;28.20;;;16.97;;
10162;SDS011;5123;52.556;13.384;2022-12-18T15:01:59;22.03;;;14.00;;
10162;SDS011;5123;52.556;13.384;2022-12-18T15:04:38;27.10;;;15.50;;
10162;SDS011;5123;52.556;13.384;2022-12-18T15:07:15;24.43;;;15.17;;
10162;SDS011;5123;52.556;13.384;2022-12-18T15:10:00;27.33;;;15.63;;
10162;SDS011;5123;52.556;13.384;2022-12-18T15:12:34;24.63;;;15.70;;
10162;SDS011;5123;52.556;13.384;2022-12-18T15:17:56;24.97;;;16.00;;
10162;SDS011;5123;52.556;13.384;2022-12-18T15:20:31;25.17;;;15.43;;
10162;SDS011;5123;52.556;13.384;2022-12-18T15:23:04;27.20;;;16.23;;
10162;SDS011;5123;52.556;13.384;2022-12-18T15:25:38;25.67;;;15.30;;
10162;SDS011;5123;52.556;13.384;2022-12-18T15:28:15;26.27;;;15.57;;
10162;SDS011;5123;52.556;13.384;2022-12-18T15:31:00;26.93;;;15.90;;
10162;SDS011;5123;52.556;13.384;2022-12-18T15:33:38;26.47;;;16.27;;